sensor_id;sensor_type;location;lat;lon;timestamp;P1;durP1;ratioP1;P2;durP2;ratioP2
12675;SDS011;63820;65.654;21.944;2022-11-20T00:02:06;2.47;;;1.40;;
12675;SDS011;63820;65.654;21.944;2022-11-20T00:04:50;3.10;;;1.60;;
12675;SDS011;63820;65.654;21.944;2022-11-20T00:07:34;4.53;;;2.10;;
12675;SDS011;63820;65.654;21.944;2022-11-20T00:10:18;2.27;;;1.50;;
12675;SDS011;63820;65.654;21.944;2022-11-20T00:13:02;2.13;;;1.37;;
12675;SDS011;63820;65.654;21.944;2022-11-20T00:15:46;2.93;;;1.50;;
12675;SDS011;63820;65.654;21.944;2022-11-20T00:18:30;2.30;;;1.50;;
12675;SDS011;63820;65.654;21.944;2022-11-20T00:21:18;2.97;;;1.63;;
12675;SDS011;63820;65.654;21.944;2022-11-20T00:24:10;2.83;;;1.50;;
12675;SDS011;63820;65.654;21.944;2022-11-20T00:26:54;3.80;;;1.90;;
12675;SDS011;63820;65.654;21.944;2022-11-20T00:29:38;3.23;;;1.50;;
12675;SDS011;63820;65.654;21.944;2022-11-20T00:32:22;3.53;;;2.13;;
12675;SDS011;63820;65.654;21.944;2022-11-20T00:35:06;4.00;;;1.60;;
12675;SDS011;63820;65.654;21.944;2022-11-20T00:37:50;3.47;;;1.90;;
12675;SDS011;63820;65.654;21.944;2022-11-20T00:40:34;2.83;;;1.60;;
12675;SDS011;63820;65.654;21.944;2022-11-20T00:43:18;3.17;;;1.73;;
12675;SDS011;63820;65.654;21.944;2022-11-20T00:46:06;3.57;;;2.10;;
12675;SDS011;63820;65.654;21.944;2022-11-20T00:49:02;3.67;;;1.67;;
12675;SDS011;63820;65.654;21.944;2022-11-20T00:51:46;3.47;;;2.07;;
12675;SDS011;63820;65.654;21.944;2022-11-20T00:54:30;4.03;;;1.77;;
12675;SDS011;63820;65.654;21.944;2022-11-20T00:57:14;2.93;;;1.70;;
12675;SDS011;63820;65.654;21.944;2022-11-20T00:59:58;2.43;;;1.40;;
12675;SDS011;63820;65.654;21.944;2022-11-20T01:02:42;2.87;;;1.50;;
12675;SDS011;63820;65.654;21.944;2022-11-20T01:05:26;3.53;;;1.90;;
12675;SDS011;63820;65.654;21.944;2022-11-20T01:08:10;2.67;;;1.70;;
12675;SDS011;63820;65.654;21.944;2022-11-20T01:10:58;4.07;;;2.00;;
12675;SDS011;63820;65.654;21.944;2022-11-20T01:13:44;4.10;;;1.93;;
12675;SDS011;63820;65.654;21.944;2022-11-20T01:16:34;2.97;;;1.60;;
12675;SDS011;63820;65.654;21.944;2022-11-20T01:19:21;3.43;;;1.90;;
12675;SDS011;63820;65.654;21.944;2022-11-20T01:22:07;4.07;;;2.40;;
12675;SDS011;63820;65.654;21.944;2022-11-20T01:24:51;3.13;;;1.70;;
12675;SDS011;63820;65.654;21.944;2022-11-20T01:27:35;3.23;;;1.90;;
12675;SDS011;63820;65.654;21.944;2022-11-20T01:30:18;3.70;;;1.97;;
12675;SDS011;63820;65.654;21.944;2022-11-20T01:33:02;3.57;;;1.60;;
12675;SDS011;63820;65.654;21.944;2022-11-20T01:35:46;3.07;;;1.63;;
12675;SDS011;63820;65.654;21.944;2022-11-20T01:38:30;5.50;;;2.37;;
12675;SDS011;63820;65.654;21.944;2022-11-20T01:41:14;5.33;;;2.13;;
12675;SDS011;63820;65.654;21.944;2022-11-20T01:44:19;2.67;;;1.53;;
12675;SDS011;63820;65.654;21.944;2022-11-20T01:47:06;3.40;;;1.90;;
12675;SDS011;63820;65.654;21.944;2022-11-20T01:50:01;4.83;;;1.87;;
12675;SDS011;63820;65.654;21.944;2022-11-20T01:52:49;4.27;;;2.23;;
12675;SDS011;63820;65.654;21.944;2022-11-20T01:55:39;4.83;;;2.30;;
12675;SDS011;63820;65.654;21.944;2022-11-20T01:58:30;4.83;;;2.17;;
12675;SDS011;63820;65.654;21.944;2022-11-20T02:01:17;4.30;;;2.20;;
12675;SDS011;63820;65.654;21.944;2022-11-20T02:04:02;5.53;;;2.03;;
12675;SDS011;63820;65.654;21.944;2022-11-20T02:06:50;3.37;;;2.10;;
12675;SDS011;63820;65.654;21.944;2022-11-20T02:09:40;3.90;;;1.77;;
12675;SDS011;63820;65.654;21.944;2022-11-20T02:12:25;3.63;;;2.00;;
12675;SDS011;63820;65.654;21.944;2022-11-20T02:15:27;5.80;;;2.27;;
12675;SDS011;63820;65.654;21.944;2022-11-20T02:18:13;3.83;;;1.87;;
12675;SDS011;63820;65.654;21.944;2022-11-20T02:21:07;3.33;;;2.07;;
12675;SDS011;63820;65.654;21.944;2022-11-20T02:26:53;4.03;;;2.13;;
12675;SDS011;63820;65.654;21.944;2022-11-20T02:32:47;5.17;;;2.50;;
12675;SDS011;63820;65.654;21.944;2022-11-20T02:38:15;3.00;;;2.07;;
12675;SDS011;63820;65.654;21.944;2022-11-20T02:40:59;5.40;;;1.93;;
12675;SDS011;63820;65.654;21.944;2022-11-20T02:43:43;3.53;;;1.90;;
12675;SDS011;63820;65.654;21.944;2022-11-20T02:46:27;3.73;;;2.27;;
12675;SDS011;63820;65.654;21.944;2022-11-20T02:49:11;5.10;;;2.27;;
12675;SDS011;63820;65.654;21.944;2022-11-20T02:51:56;5.33;;;2.10;;
12675;SDS011;63820;65.654;21.944;2022-11-20T02:54:40;5.37;;;2.33;;
12675;SDS011;63820;65.654;21.944;2022-11-20T02:57:24;5.07;;;2.00;;
12675;SDS011;63820;65.654;21.944;2022-11-20T03:00:08;3.17;;;1.80;;
12675;SDS011;63820;65.654;21.944;2022-11-20T03:02:53;4.93;;;2.13;;
12675;SDS011;63820;65.654;21.944;2022-11-20T03:05:37;6.13;;;2.10;;
12675;SDS011;63820;65.654;21.944;2022-11-20T03:08:21;4.87;;;2.33;;
12675;SDS011;63820;65.654;21.944;2022-11-20T03:11:06;4.87;;;2.30;;
12675;SDS011;63820;65.654;21.944;2022-11-20T03:13:51;3.93;;;2.00;;
12675;SDS011;63820;65.654;21.944;2022-11-20T03:16:35;3.97;;;1.97;;
12675;SDS011;63820;65.654;21.944;2022-11-20T03:19:20;4.93;;;2.53;;
12675;SDS011;63820;65.654;21.944;2022-11-20T03:22:03;4.27;;;2.17;;
12675;SDS011;63820;65.654;21.944;2022-11-20T03:24:48;4.53;;;2.33;;
12675;SDS011;63820;65.654;21.944;2022-11-20T03:27:33;5.10;;;2.27;;
12675;SDS011;63820;65.654;21.944;2022-11-20T03:30:18;6.07;;;2.77;;
12675;SDS011;63820;65.654;21.944;2022-11-20T03:33:02;4.43;;;2.30;;
12675;SDS011;63820;65.654;21.944;2022-11-20T03:35:46;4.97;;;2.73;;
12675;SDS011;63820;65.654;21.944;2022-11-20T03:38:30;5.13;;;2.33;;
12675;SDS011;63820;65.654;21.944;2022-11-20T03:41:19;4.73;;;2.30;;
12675;SDS011;63820;65.654;21.944;2022-11-20T03:44:07;4.97;;;2.67;;
12675;SDS011;63820;65.654;21.944;2022-11-20T03:46:53;5.23;;;2.10;;
12675;SDS011;63820;65.654;21.944;2022-11-20T03:49:37;4.13;;;2.37;;
12675;SDS011;63820;65.654;21.944;2022-11-20T03:52:20;4.20;;;2.37;;
12675;SDS011;63820;65.654;21.944;2022-11-20T03:55:05;5.70;;;2.87;;
12675;SDS011;63820;65.654;21.944;2022-11-20T03:57:50;5.40;;;2.40;;
12675;SDS011;63820;65.654;21.944;2022-11-20T04:00:34;5.50;;;2.20;;
12675;SDS011;63820;65.654;21.944;2022-11-20T04:03:18;5.17;;;2.20;;
12675;SDS011;63820;65.654;21.944;2022-11-20T04:06:06;4.43;;;2.13;;
12675;SDS011;63820;65.654;21.944;2022-11-20T04:08:55;5.30;;;2.47;;
12675;SDS011;63820;65.654;21.944;2022-11-20T04:11:40;4.57;;;2.20;;
12675;SDS011;63820;65.654;21.944;2022-11-20T04:14:24;5.37;;;2.27;;
12675;SDS011;63820;65.654;21.944;2022-11-20T04:17:09;4.07;;;2.20;;
12675;SDS011;63820;65.654;21.944;2022-11-20T04:19:52;4.37;;;2.03;;
12675;SDS011;63820;65.654;21.944;2022-11-20T04:22:36;5.37;;;2.40;;
12675;SDS011;63820;65.654;21.944;2022-11-20T04:25:20;5.03;;;2.83;;
12675;SDS011;63820;65.654;21.944;2022-11-20T04:28:04;5.33;;;2.67;;
12675;SDS011;63820;65.654;21.944;2022-11-20T04:30:48;4.53;;;2.40;;
12675;SDS011;63820;65.654;21.944;2022-11-20T04:33:32;4.53;;;2.13;;
12675;SDS011;63820;65.654;21.944;2022-11-20T04:36:18;6.90;;;2.90;;
12675;SDS011;63820;65.654;21.944;2022-11-20T04:39:05;5.17;;;2.00;;
12675;SDS011;63820;65.654;21.944;2022-11-20T04:41:50;4.10;;;2.13;;
12675;SDS011;63820;65.654;21.944;2022-11-20T04:44:54;5.40;;;2.63;;
12675;SDS011;63820;65.654;21.944;2022-11-20T04:47:38;6.47;;;2.40;;
12675;SDS011;63820;65.654;21.944;2022-11-20T04:50:22;4.10;;;2.00;;
12675;SDS011;63820;65.654;21.944;2022-11-20T04:53:06;4.30;;;2.03;;
12675;SDS011;63820;65.654;21.944;2022-11-20T04:55:50;4.97;;;2.40;;
12675;SDS011;63820;65.654;21.944;2022-11-20T04:58:34;4.83;;;2.20;;
12675;SDS011;63820;65.654;21.944;2022-11-20T05:01:20;5.17;;;2.60;;
12675;SDS011;63820;65.654;21.944;2022-11-20T05:04:05;3.90;;;2.00;;
12675;SDS011;63820;65.654;21.944;2022-11-20T05:06:50;5.77;;;2.43;;
12675;SDS011;63820;65.654;21.944;2022-11-20T05:09:34;5.53;;;2.23;;
12675;SDS011;63820;65.654;21.944;2022-11-20T05:12:18;7.60;;;3.47;;
12675;SDS011;63820;65.654;21.944;2022-11-20T05:15:02;5.80;;;2.60;;
12675;SDS011;63820;65.654;21.944;2022-11-20T05:17:50;4.33;;;2.43;;
12675;SDS011;63820;65.654;21.944;2022-11-20T05:20:35;4.97;;;2.40;;
12675;SDS011;63820;65.654;21.944;2022-11-20T05:23:20;6.67;;;2.37;;
12675;SDS011;63820;65.654;21.944;2022-11-20T05:26:04;4.50;;;2.07;;
12675;SDS011;63820;65.654;21.944;2022-11-20T05:28:49;5.27;;;2.20;;
12675;SDS011;63820;65.654;21.944;2022-11-20T05:31:34;4.93;;;2.43;;
12675;SDS011;63820;65.654;21.944;2022-11-20T05:34:19;5.27;;;2.23;;
12675;SDS011;63820;65.654;21.944;2022-11-20T05:37:03;5.30;;;2.67;;
12675;SDS011;63820;65.654;21.944;2022-11-20T05:39:47;6.33;;;2.63;;
12675;SDS011;63820;65.654;21.944;2022-11-20T05:42:31;4.87;;;2.33;;
12675;SDS011;63820;65.654;21.944;2022-11-20T05:45:15;3.77;;;2.17;;
12675;SDS011;63820;65.654;21.944;2022-11-20T05:47:59;7.73;;;2.57;;
12675;SDS011;63820;65.654;21.944;2022-11-20T05:50:44;4.43;;;2.60;;
12675;SDS011;63820;65.654;21.944;2022-11-20T05:53:28;6.83;;;3.10;;
12675;SDS011;63820;65.654;21.944;2022-11-20T05:56:13;7.13;;;3.73;;
12675;SDS011;63820;65.654;21.944;2022-11-20T05:59:00;5.37;;;2.70;;
12675;SDS011;63820;65.654;21.944;2022-11-20T06:01:44;4.03;;;2.33;;
12675;SDS011;63820;65.654;21.944;2022-11-20T06:04:28;6.50;;;3.47;;
12675;SDS011;63820;65.654;21.944;2022-11-20T06:07:12;5.83;;;2.90;;
12675;SDS011;63820;65.654;21.944;2022-11-20T06:09:56;6.80;;;3.00;;
12675;SDS011;63820;65.654;21.944;2022-11-20T06:12:40;7.80;;;3.03;;
12675;SDS011;63820;65.654;21.944;2022-11-20T06:15:24;6.13;;;2.87;;
12675;SDS011;63820;65.654;21.944;2022-11-20T06:18:09;5.30;;;2.93;;
12675;SDS011;63820;65.654;21.944;2022-11-20T06:20:58;4.87;;;2.43;;
12675;SDS011;63820;65.654;21.944;2022-11-20T06:23:56;7.97;;;3.20;;
12675;SDS011;63820;65.654;21.944;2022-11-20T06:26:40;6.37;;;3.10;;
12675;SDS011;63820;65.654;21.944;2022-11-20T06:29:25;6.70;;;3.10;;
12675;SDS011;63820;65.654;21.944;2022-11-20T06:32:09;7.23;;;2.73;;
12675;SDS011;63820;65.654;21.944;2022-11-20T06:34:53;8.40;;;3.27;;
12675;SDS011;63820;65.654;21.944;2022-11-20T06:37:37;6.33;;;3.13;;
12675;SDS011;63820;65.654;21.944;2022-11-20T06:40:21;6.47;;;2.67;;
12675;SDS011;63820;65.654;21.944;2022-11-20T06:43:05;6.97;;;2.90;;
12675;SDS011;63820;65.654;21.944;2022-11-20T06:45:55;6.73;;;3.40;;
12675;SDS011;63820;65.654;21.944;2022-11-20T06:48:40;4.87;;;2.80;;
12675;SDS011;63820;65.654;21.944;2022-11-20T06:51:24;4.47;;;2.37;;
12675;SDS011;63820;65.654;21.944;2022-11-20T06:54:08;6.83;;;3.27;;
12675;SDS011;63820;65.654;21.944;2022-11-20T06:56:52;6.43;;;3.03;;
12675;SDS011;63820;65.654;21.944;2022-11-20T06:59:36;6.13;;;2.90;;
12675;SDS011;63820;65.654;21.944;2022-11-20T07:02:20;6.80;;;3.00;;
12675;SDS011;63820;65.654;21.944;2022-11-20T07:05:04;5.47;;;2.70;;
12675;SDS011;63820;65.654;21.944;2022-11-20T07:07:48;5.03;;;2.73;;
12675;SDS011;63820;65.654;21.944;2022-11-20T07:10:33;8.17;;;3.27;;
12675;SDS011;63820;65.654;21.944;2022-11-20T07:13:17;4.50;;;2.70;;
12675;SDS011;63820;65.654;21.944;2022-11-20T07:16:02;5.70;;;2.63;;
12675;SDS011;63820;65.654;21.944;2022-11-20T07:18:48;4.30;;;2.20;;
12675;SDS011;63820;65.654;21.944;2022-11-20T07:21:33;6.10;;;2.80;;
12675;SDS011;63820;65.654;21.944;2022-11-20T07:24:17;7.77;;;2.63;;
12675;SDS011;63820;65.654;21.944;2022-11-20T07:27:00;4.93;;;2.57;;
12675;SDS011;63820;65.654;21.944;2022-11-20T07:29:44;4.80;;;2.23;;
12675;SDS011;63820;65.654;21.944;2022-11-20T07:32:28;6.10;;;3.10;;
12675;SDS011;63820;65.654;21.944;2022-11-20T07:35:13;5.63;;;2.87;;
12675;SDS011;63820;65.654;21.944;2022-11-20T07:37:57;5.93;;;3.33;;
12675;SDS011;63820;65.654;21.944;2022-11-20T07:40:41;6.57;;;2.87;;
12675;SDS011;63820;65.654;21.944;2022-11-20T07:43:26;7.93;;;3.40;;
12675;SDS011;63820;65.654;21.944;2022-11-20T07:46:10;7.00;;;3.30;;
12675;SDS011;63820;65.654;21.944;2022-11-20T07:48:53;4.93;;;2.40;;
12675;SDS011;63820;65.654;21.944;2022-11-20T07:51:37;7.23;;;3.30;;
12675;SDS011;63820;65.654;21.944;2022-11-20T07:54:21;6.63;;;3.17;;
12675;SDS011;63820;65.654;21.944;2022-11-20T07:57:06;7.33;;;2.90;;
12675;SDS011;63820;65.654;21.944;2022-11-20T07:59:50;7.93;;;3.13;;
12675;SDS011;63820;65.654;21.944;2022-11-20T08:02:36;5.57;;;2.40;;
12675;SDS011;63820;65.654;21.944;2022-11-20T08:05:22;8.20;;;2.70;;
12675;SDS011;63820;65.654;21.944;2022-11-20T08:08:07;4.70;;;2.33;;
12675;SDS011;63820;65.654;21.944;2022-11-20T08:10:51;6.53;;;2.57;;
12675;SDS011;63820;65.654;21.944;2022-11-20T08:13:36;6.17;;;2.83;;
12675;SDS011;63820;65.654;21.944;2022-11-20T08:16:39;5.67;;;2.37;;
12675;SDS011;63820;65.654;21.944;2022-11-20T08:19:25;7.33;;;2.70;;
12675;SDS011;63820;65.654;21.944;2022-11-20T08:22:09;6.13;;;2.87;;
12675;SDS011;63820;65.654;21.944;2022-11-20T08:24:53;6.33;;;2.50;;
12675;SDS011;63820;65.654;21.944;2022-11-20T08:27:37;4.47;;;2.17;;
12675;SDS011;63820;65.654;21.944;2022-11-20T08:30:21;3.43;;;1.90;;
12675;SDS011;63820;65.654;21.944;2022-11-20T08:33:07;4.50;;;2.20;;
12675;SDS011;63820;65.654;21.944;2022-11-20T08:35:52;3.47;;;1.73;;
12675;SDS011;63820;65.654;21.944;2022-11-20T08:38:36;2.73;;;1.67;;
12675;SDS011;63820;65.654;21.944;2022-11-20T08:41:21;3.43;;;1.77;;
12675;SDS011;63820;65.654;21.944;2022-11-20T08:44:10;3.30;;;1.70;;
12675;SDS011;63820;65.654;21.944;2022-11-20T08:46:54;4.50;;;2.10;;
12675;SDS011;63820;65.654;21.944;2022-11-20T08:49:38;3.33;;;1.73;;
12675;SDS011;63820;65.654;21.944;2022-11-20T08:52:22;4.03;;;2.13;;
12675;SDS011;63820;65.654;21.944;2022-11-20T08:55:06;4.20;;;1.60;;
12675;SDS011;63820;65.654;21.944;2022-11-20T08:57:52;4.10;;;1.60;;
12675;SDS011;63820;65.654;21.944;2022-11-20T09:00:36;4.93;;;1.80;;
12675;SDS011;63820;65.654;21.944;2022-11-20T09:03:20;3.43;;;1.30;;
12675;SDS011;63820;65.654;21.944;2022-11-20T09:06:05;2.00;;;1.07;;
12675;SDS011;63820;65.654;21.944;2022-11-20T09:08:53;2.33;;;1.17;;
12675;SDS011;63820;65.654;21.944;2022-11-20T09:11:38;1.87;;;1.20;;
12675;SDS011;63820;65.654;21.944;2022-11-20T09:14:22;2.00;;;0.90;;
12675;SDS011;63820;65.654;21.944;2022-11-20T09:17:09;1.40;;;0.93;;
12675;SDS011;63820;65.654;21.944;2022-11-20T09:19:54;1.73;;;0.97;;
12675;SDS011;63820;65.654;21.944;2022-11-20T09:22:39;1.23;;;0.90;;
12675;SDS011;63820;65.654;21.944;2022-11-20T09:25:23;1.70;;;0.90;;
12675;SDS011;63820;65.654;21.944;2022-11-20T09:28:08;1.83;;;1.23;;
12675;SDS011;63820;65.654;21.944;2022-11-20T09:30:52;1.60;;;0.90;;
12675;SDS011;63820;65.654;21.944;2022-11-20T09:33:36;1.97;;;1.07;;
12675;SDS011;63820;65.654;21.944;2022-11-20T09:36:20;2.00;;;1.10;;
12675;SDS011;63820;65.654;21.944;2022-11-20T09:39:04;2.03;;;1.10;;
12675;SDS011;63820;65.654;21.944;2022-11-20T09:41:55;2.50;;;0.90;;
12675;SDS011;63820;65.654;21.944;2022-11-20T09:57:15;2.40;;;1.20;;
12675;SDS011;63820;65.654;21.944;2022-11-20T10:00:04;1.53;;;1.13;;
12675;SDS011;63820;65.654;21.944;2022-11-20T10:02:53;1.77;;;1.10;;
12675;SDS011;63820;65.654;21.944;2022-11-20T10:05:46;2.07;;;1.17;;
12675;SDS011;63820;65.654;21.944;2022-11-20T10:08:45;3.10;;;1.20;;
12675;SDS011;63820;65.654;21.944;2022-11-20T10:17:50;2.00;;;1.03;;
12675;SDS011;63820;65.654;21.944;2022-11-20T10:23:57;3.17;;;1.60;;
12675;SDS011;63820;65.654;21.944;2022-11-20T10:30:14;2.03;;;1.30;;
12675;SDS011;63820;65.654;21.944;2022-11-20T10:33:04;2.77;;;1.20;;
12675;SDS011;63820;65.654;21.944;2022-11-20T10:39:14;3.70;;;1.37;;
12675;SDS011;63820;65.654;21.944;2022-11-20T10:42:12;2.67;;;1.27;;
12675;SDS011;63820;65.654;21.944;2022-11-20T10:45:27;4.63;;;1.80;;
12675;SDS011;63820;65.654;21.944;2022-11-20T10:48:22;3.83;;;1.70;;
12675;SDS011;63820;65.654;21.944;2022-11-20T10:51:12;1.60;;;1.10;;
12675;SDS011;63820;65.654;21.944;2022-11-20T10:54:05;2.53;;;1.70;;
12675;SDS011;63820;65.654;21.944;2022-11-20T10:57:17;3.43;;;1.60;;
12675;SDS011;63820;65.654;21.944;2022-11-20T11:00:09;2.47;;;1.43;;
12675;SDS011;63820;65.654;21.944;2022-11-20T11:02:54;3.03;;;1.20;;
12675;SDS011;63820;65.654;21.944;2022-11-20T11:08:53;2.13;;;1.30;;
12675;SDS011;63820;65.654;21.944;2022-11-20T11:11:40;3.37;;;1.37;;
12675;SDS011;63820;65.654;21.944;2022-11-20T11:14:24;2.33;;;1.50;;
12675;SDS011;63820;65.654;21.944;2022-11-20T11:17:17;1.73;;;1.07;;
12675;SDS011;63820;65.654;21.944;2022-11-20T11:22:58;2.07;;;0.97;;
12675;SDS011;63820;65.654;21.944;2022-11-20T11:25:43;2.37;;;1.13;;
12675;SDS011;63820;65.654;21.944;2022-11-20T11:28:41;1.70;;;1.00;;
12675;SDS011;63820;65.654;21.944;2022-11-20T11:31:25;1.37;;;0.87;;
12675;SDS011;63820;65.654;21.944;2022-11-20T11:34:11;1.37;;;1.07;;
12675;SDS011;63820;65.654;21.944;2022-11-20T11:36:57;1.00;;;0.87;;
12675;SDS011;63820;65.654;21.944;2022-11-20T11:39:44;1.37;;;0.90;;
12675;SDS011;63820;65.654;21.944;2022-11-20T11:42:30;1.53;;;1.00;;
12675;SDS011;63820;65.654;21.944;2022-11-20T11:45:15;1.93;;;1.20;;
12675;SDS011;63820;65.654;21.944;2022-11-20T11:48:01;1.10;;;0.77;;
12675;SDS011;63820;65.654;21.944;2022-11-20T11:50:50;1.37;;;0.93;;
12675;SDS011;63820;65.654;21.944;2022-11-20T11:53:35;1.03;;;0.60;;
12675;SDS011;63820;65.654;21.944;2022-11-20T11:56:24;0.80;;;0.67;;
12675;SDS011;63820;65.654;21.944;2022-11-20T11:59:12;1.17;;;0.70;;
12675;SDS011;63820;65.654;21.944;2022-11-20T12:08:31;2.00;;;1.03;;
12675;SDS011;63820;65.654;21.944;2022-11-20T12:14:31;1.30;;;0.50;;
12675;SDS011;63820;65.654;21.944;2022-11-20T12:17:20;2.60;;;1.10;;
12675;SDS011;63820;65.654;21.944;2022-11-20T12:20:05;2.67;;;1.50;;
12675;SDS011;63820;65.654;21.944;2022-11-20T12:22:59;1.83;;;0.90;;
12675;SDS011;63820;65.654;21.944;2022-11-20T12:25:53;1.83;;;1.10;;
12675;SDS011;63820;65.654;21.944;2022-11-20T12:28:56;1.60;;;1.23;;
12675;SDS011;63820;65.654;21.944;2022-11-20T12:32:02;1.80;;;1.10;;
12675;SDS011;63820;65.654;21.944;2022-11-20T12:41:05;2.37;;;1.40;;
12675;SDS011;63820;65.654;21.944;2022-11-20T13:00:41;1.73;;;1.27;;
12675;SDS011;63820;65.654;21.944;2022-11-20T13:03:56;2.33;;;1.60;;
12675;SDS011;63820;65.654;21.944;2022-11-20T13:06:41;2.23;;;1.57;;
12675;SDS011;63820;65.654;21.944;2022-11-20T13:09:25;3.63;;;1.47;;
12675;SDS011;63820;65.654;21.944;2022-11-20T13:12:20;2.23;;;1.40;;
12675;SDS011;63820;65.654;21.944;2022-11-20T13:18:29;1.77;;;1.23;;
12675;SDS011;63820;65.654;21.944;2022-11-20T13:21:22;1.90;;;1.03;;
12675;SDS011;63820;65.654;21.944;2022-11-20T13:30:01;2.50;;;1.20;;
12675;SDS011;63820;65.654;21.944;2022-11-20T13:32:58;3.23;;;1.30;;
12675;SDS011;63820;65.654;21.944;2022-11-20T13:36:05;2.27;;;1.47;;
12675;SDS011;63820;65.654;21.944;2022-11-20T13:38:52;5.33;;;1.63;;
12675;SDS011;63820;65.654;21.944;2022-11-20T13:41:37;2.93;;;1.17;;
12675;SDS011;63820;65.654;21.944;2022-11-20T13:47:24;1.67;;;1.00;;
12675;SDS011;63820;65.654;21.944;2022-11-20T13:50:13;3.47;;;1.40;;
12675;SDS011;63820;65.654;21.944;2022-11-20T13:56:07;2.07;;;1.10;;
12675;SDS011;63820;65.654;21.944;2022-11-20T13:58:56;2.03;;;1.37;;
12675;SDS011;63820;65.654;21.944;2022-11-20T14:01:48;2.97;;;1.60;;
12675;SDS011;63820;65.654;21.944;2022-11-20T14:04:33;2.27;;;1.40;;
12675;SDS011;63820;65.654;21.944;2022-11-20T14:07:22;3.07;;;1.63;;
12675;SDS011;63820;65.654;21.944;2022-11-20T14:10:27;2.10;;;1.60;;
12675;SDS011;63820;65.654;21.944;2022-11-20T14:13:17;3.53;;;1.80;;
12675;SDS011;63820;65.654;21.944;2022-11-20T14:16:03;3.03;;;1.43;;
12675;SDS011;63820;65.654;21.944;2022-11-20T14:18:47;3.53;;;1.47;;
12675;SDS011;63820;65.654;21.944;2022-11-20T14:21:31;2.57;;;1.43;;
12675;SDS011;63820;65.654;21.944;2022-11-20T14:24:19;2.03;;;1.33;;
12675;SDS011;63820;65.654;21.944;2022-11-20T14:27:04;3.30;;;1.80;;
12675;SDS011;63820;65.654;21.944;2022-11-20T14:29:55;2.47;;;1.30;;
12675;SDS011;63820;65.654;21.944;2022-11-20T14:32:39;2.77;;;1.43;;
12675;SDS011;63820;65.654;21.944;2022-11-20T14:35:29;2.40;;;1.37;;
12675;SDS011;63820;65.654;21.944;2022-11-20T14:38:21;2.70;;;1.40;;
12675;SDS011;63820;65.654;21.944;2022-11-20T14:41:14;2.60;;;1.20;;
12675;SDS011;63820;65.654;21.944;2022-11-20T14:44:08;2.17;;;1.37;;
12675;SDS011;63820;65.654;21.944;2022-11-20T14:46:54;1.87;;;1.47;;
12675;SDS011;63820;65.654;21.944;2022-11-20T14:49:40;2.00;;;1.57;;
12675;SDS011;63820;65.654;21.944;2022-11-20T14:52:25;4.33;;;2.00;;
12675;SDS011;63820;65.654;21.944;2022-11-20T14:55:13;2.37;;;1.37;;
12675;SDS011;63820;65.654;21.944;2022-11-20T14:58:05;3.13;;;1.60;;
12675;SDS011;63820;65.654;21.944;2022-11-20T15:01:04;2.30;;;1.47;;
12675;SDS011;63820;65.654;21.944;2022-11-20T15:03:56;3.17;;;1.50;;
12675;SDS011;63820;65.654;21.944;2022-11-20T15:06:50;2.50;;;1.27;;
12675;SDS011;63820;65.654;21.944;2022-11-20T15:09:36;3.50;;;2.03;;
12675;SDS011;63820;65.654;21.944;2022-11-20T15:12:20;3.00;;;1.43;;
12675;SDS011;63820;65.654;21.944;2022-11-20T15:15:04;3.57;;;1.77;;
12675;SDS011;63820;65.654;21.944;2022-11-20T15:17:49;4.53;;;2.00;;
12675;SDS011;63820;65.654;21.944;2022-11-20T15:20:34;2.63;;;1.83;;
12675;SDS011;63820;65.654;21.944;2022-11-20T15:23:20;3.30;;;2.13;;
12675;SDS011;63820;65.654;21.944;2022-11-20T15:26:07;4.03;;;2.00;;
12675;SDS011;63820;65.654;21.944;2022-11-20T15:28:52;1.77;;;1.30;;
12675;SDS011;63820;65.654;21.944;2022-11-20T15:31:37;1.90;;;1.57;;
12675;SDS011;63820;65.654;21.944;2022-11-20T15:34:26;3.97;;;1.87;;
12675;SDS011;63820;65.654;21.944;2022-11-20T15:37:10;3.63;;;2.07;;
12675;SDS011;63820;65.654;21.944;2022-11-20T15:39:54;2.83;;;1.57;;
12675;SDS011;63820;65.654;21.944;2022-11-20T15:42:38;2.80;;;1.97;;
12675;SDS011;63820;65.654;21.944;2022-11-20T15:48:56;3.60;;;1.60;;
12675;SDS011;63820;65.654;21.944;2022-11-20T15:51:43;3.77;;;1.90;;
12675;SDS011;63820;65.654;21.944;2022-11-20T15:54:30;1.97;;;1.20;;
12675;SDS011;63820;65.654;21.944;2022-11-20T15:57:14;2.70;;;1.23;;
12675;SDS011;63820;65.654;21.944;2022-11-20T15:59:59;3.97;;;2.00;;
12675;SDS011;63820;65.654;21.944;2022-11-20T16:02:43;4.70;;;3.10;;
12675;SDS011;63820;65.654;21.944;2022-11-20T16:05:27;3.67;;;2.27;;
12675;SDS011;63820;65.654;21.944;2022-11-20T16:08:12;16.73;;;9.30;;
12675;SDS011;63820;65.654;21.944;2022-11-20T16:10:56;6.43;;;3.40;;
12675;SDS011;63820;65.654;21.944;2022-11-20T16:13:41;10.90;;;7.07;;
12675;SDS011;63820;65.654;21.944;2022-11-20T16:16:44;22.40;;;10.80;;
12675;SDS011;63820;65.654;21.944;2022-11-20T16:19:28;8.60;;;4.33;;
12675;SDS011;63820;65.654;21.944;2022-11-20T16:22:11;4.13;;;2.53;;
12675;SDS011;63820;65.654;21.944;2022-11-20T16:24:56;4.63;;;2.30;;
12675;SDS011;63820;65.654;21.944;2022-11-20T16:27:39;5.27;;;1.60;;
12675;SDS011;63820;65.654;21.944;2022-11-20T16:30:24;4.30;;;2.10;;
12675;SDS011;63820;65.654;21.944;2022-11-20T16:33:09;3.57;;;1.73;;
12675;SDS011;63820;65.654;21.944;2022-11-20T16:35:55;3.30;;;1.63;;
12675;SDS011;63820;65.654;21.944;2022-11-20T16:38:39;15.77;;;6.97;;
12675;SDS011;63820;65.654;21.944;2022-11-20T16:41:24;18.00;;;8.23;;
12675;SDS011;63820;65.654;21.944;2022-11-20T16:44:10;8.63;;;5.13;;
12675;SDS011;63820;65.654;21.944;2022-11-20T16:46:54;3.87;;;3.00;;
12675;SDS011;63820;65.654;21.944;2022-11-20T16:49:38;8.20;;;4.03;;
12675;SDS011;63820;65.654;21.944;2022-11-20T16:52:22;25.83;;;11.17;;
12675;SDS011;63820;65.654;21.944;2022-11-20T16:55:06;6.60;;;2.93;;
12675;SDS011;63820;65.654;21.944;2022-11-20T16:57:51;11.07;;;4.53;;
12675;SDS011;63820;65.654;21.944;2022-11-20T17:00:35;14.93;;;7.37;;
12675;SDS011;63820;65.654;21.944;2022-11-20T17:03:20;11.07;;;5.23;;
12675;SDS011;63820;65.654;21.944;2022-11-20T17:06:11;16.30;;;8.50;;
12675;SDS011;63820;65.654;21.944;2022-11-20T17:09:00;35.50;;;15.70;;
12675;SDS011;63820;65.654;21.944;2022-11-20T17:11:45;12.93;;;6.83;;
12675;SDS011;63820;65.654;21.944;2022-11-20T17:14:31;4.13;;;2.20;;
12675;SDS011;63820;65.654;21.944;2022-11-20T17:17:14;21.37;;;11.40;;
12675;SDS011;63820;65.654;21.944;2022-11-20T17:19:58;4.47;;;2.70;;
12675;SDS011;63820;65.654;21.944;2022-11-20T17:22:42;5.43;;;2.80;;
12675;SDS011;63820;65.654;21.944;2022-11-20T17:25:26;6.30;;;4.07;;
12675;SDS011;63820;65.654;21.944;2022-11-20T17:28:10;10.70;;;5.03;;
12675;SDS011;63820;65.654;21.944;2022-11-20T17:30:58;6.57;;;3.90;;
12675;SDS011;63820;65.654;21.944;2022-11-20T17:33:44;2.67;;;1.50;;
12675;SDS011;63820;65.654;21.944;2022-11-20T17:36:29;2.90;;;1.77;;
12675;SDS011;63820;65.654;21.944;2022-11-20T17:39:15;5.43;;;1.60;;
12675;SDS011;63820;65.654;21.944;2022-11-20T17:42:00;4.13;;;2.93;;
12675;SDS011;63820;65.654;21.944;2022-11-20T17:45:03;4.37;;;2.20;;
12675;SDS011;63820;65.654;21.944;2022-11-20T17:47:47;3.07;;;1.77;;
12675;SDS011;63820;65.654;21.944;2022-11-20T17:50:31;2.40;;;1.70;;
12675;SDS011;63820;65.654;21.944;2022-11-20T17:53:15;4.47;;;2.47;;
12675;SDS011;63820;65.654;21.944;2022-11-20T17:55:59;4.00;;;1.87;;
12675;SDS011;63820;65.654;21.944;2022-11-20T17:59:06;3.37;;;1.80;;
12675;SDS011;63820;65.654;21.944;2022-11-20T18:01:52;17.50;;;8.80;;
12675;SDS011;63820;65.654;21.944;2022-11-20T18:04:37;36.53;;;18.63;;